Time;durP1;ratioP1;P1;durP2;ratioP2;P2;SDS_P1;SDS_P2;PMS_P1;PMS_P2;Temp;Humidity;BMP_temperature;BMP_pressure;BME280_temperature;BME280_humidity;BME280_pressure;Samples;Min_cycle;Max_cycle;Signal;HPM_P1;HPM_P2
2023/09/18 00:01:19;;;;;;;29.63;16.92;;;;;;;;;;5014964;28;20269;-70
2023/09/18 00:03:45;;;;;;;25.30;17.35;;;;;;;;;;5014945;28;20470;-70
2023/09/18 00:06:11;;;;;;;26.42;17.67;;;;;;;;;;5014840;28;20108;-71
2023/09/18 00:08:36;;;;;;;30.70;17.67;;;;;;;;;;5016051;28;20484;-70
2023/09/18 00:11:01;;;;;;;28.93;17.60;;;;;;;;;;5015892;28;20019;-70
2023/09/18 00:13:26;;;;;;;26.23;17.00;;;;;;;;;;5014769;28;20037;-70
2023/09/18 00:15:54;;;;;;;26.53;17.03;;;;;;;;;;5015937;28;20276;-71
2023/09/18 00:18:19;;;;;;;32.10;17.02;;;;;;;;;;5015909;28;20022;-70
2023/09/18 00:20:49;;;;;;;26.17;17.83;;;;;;;;;;5015750;28;20022;-70
2023/09/18 00:23:15;;;;;;;30.25;18.10;;;;;;;;;;5015819;28;20029;-70
2023/09/18 00:25:42;;;;;;;28.10;17.90;;;;;;;;;;5014500;28;20014;-71
2023/09/18 00:28:07;;;;;;;26.05;18.33;;;;;;;;;;5015484;28;20033;-71
2023/09/18 00:30:32;;;;;;;28.30;18.55;;;;;;;;;;5015744;28;20014;-70
2023/09/18 00:32:58;;;;;;;29.02;17.58;;;;;;;;;;5014420;28;20017;-71
2023/09/18 00:35:23;;;;;;;32.27;17.20;;;;;;;;;;5014294;28;20022;-71
2023/09/18 00:37:49;;;;;;;27.60;18.73;;;;;;;;;;5015690;28;20320;-71
2023/09/18 00:40:14;;;;;;;28.50;18.00;;;;;;;;;;5014164;28;20029;-70
2023/09/18 00:42:39;;;;;;;30.58;18.65;;;;;;;;;;5015431;28;20293;-70
2023/09/18 00:45:05;;;;;;;31.47;17.03;;;;;;;;;;5014144;28;20014;-70
2023/09/18 00:47:30;;;;;;;27.75;17.42;;;;;;;;;;5014072;28;20265;-71
2023/09/18 00:49:55;;;;;;;28.45;17.58;;;;;;;;;;5013961;28;20100;-71
2023/09/18 00:52:22;;;;;;;29.75;17.35;;;;;;;;;;5015272;28;20139;-70
2023/09/18 00:54:48;;;;;;;27.05;18.00;;;;;;;;;;5015156;28;20021;-71
2023/09/18 00:57:13;;;;;;;33.83;17.67;;;;;;;;;;5015322;28;20466;-71
2023/09/18 00:59:39;;;;;;;30.52;18.60;;;;;;;;;;5015116;28;20517;-71
2023/09/18 01:02:04;;;;;;;27.23;16.73;;;;;;;;;;5013659;28;20026;-70
2023/09/18 01:04:29;;;;;;;28.45;16.52;;;;;;;;;;5015070;28;20025;-71
2023/09/18 01:06:56;;;;;;;29.98;17.40;;;;;;;;;;5013752;28;20120;-70
2023/09/18 01:09:21;;;;;;;28.60;17.38;;;;;;;;;;5014874;28;20017;-70
2023/09/18 01:11:50;;;;;;;27.45;16.55;;;;;;;;;;5014943;28;20022;-71
2023/09/18 01:14:20;;;;;;;28.05;17.83;;;;;;;;;;5013719;28;20153;-70
2023/09/18 01:16:50;;;;;;;23.45;17.15;;;;;;;;;;5013916;28;20477;-71
2023/09/18 01:19:15;;;;;;;30.50;16.73;;;;;;;;;;5014957;28;20384;-71
2023/09/18 01:21:41;;;;;;;26.53;17.20;;;;;;;;;;5014647;28;20024;-71
2023/09/18 01:24:06;;;;;;;30.25;18.35;;;;;;;;;;5013303;28;20029;-70
2023/09/18 01:26:31;;;;;;;23.85;16.45;;;;;;;;;;5014653;28;20080;-72
2023/09/18 01:28:57;;;;;;;28.13;16.23;;;;;;;;;;5014483;28;20045;-70
2023/09/18 01:31:22;;;;;;;27.58;16.65;;;;;;;;;;5013330;28;20624;-71
2023/09/18 01:33:48;;;;;;;28.53;16.63;;;;;;;;;;5013347;28;20507;-70
2023/09/18 01:36:14;;;;;;;22.23;15.90;;;;;;;;;;5013271;28;20353;-70
2023/09/18 01:38:39;;;;;;;25.80;16.40;;;;;;;;;;5014560;28;20104;-70
2023/09/18 01:41:05;;;;;;;26.35;16.90;;;;;;;;;;5013119;28;20022;-70
2023/09/18 01:43:30;;;;;;;25.90;16.27;;;;;;;;;;5014397;28;20367;-70
2023/09/18 01:45:55;;;;;;;33.00;16.88;;;;;;;;;;5014392;28;20049;-70
2023/09/18 01:48:21;;;;;;;29.77;16.55;;;;;;;;;;5013043;28;20021;-70
2023/09/18 01:50:46;;;;;;;25.13;16.37;;;;;;;;;;5014273;28;20018;-70
2023/09/18 01:53:11;;;;;;;30.13;16.73;;;;;;;;;;5014199;28;20273;-70
2023/09/18 01:55:36;;;;;;;26.17;15.87;;;;;;;;;;5013763;28;20264;-70
2023/09/18 01:58:02;;;;;;;24.02;16.17;;;;;;;;;;5014066;28;20283;-70
2023/09/18 02:00:28;;;;;;;25.40;17.30;;;;;;;;;;5012792;28;20046;-70
2023/09/18 02:02:53;;;;;;;27.20;16.90;;;;;;;;;;5012764;28;20560;-70
2023/09/18 02:05:18;;;;;;;22.73;16.73;;;;;;;;;;5012837;28;20018;-70
2023/09/18 02:07:43;;;;;;;25.23;17.03;;;;;;;;;;5012843;28;20441;-70
2023/09/18 02:10:08;;;;;;;24.52;15.80;;;;;;;;;;5013873;28;20257;-70
2023/09/18 02:12:34;;;;;;;22.70;15.43;;;;;;;;;;5013977;28;20048;-70
2023/09/18 02:15:04;;;;;;;22.33;15.90;;;;;;;;;;5013805;28;20028;-70
2023/09/18 02:17:29;;;;;;;20.55;14.77;;;;;;;;;;5012612;28;20108;-70
2023/09/18 02:19:54;;;;;;;25.02;15.90;;;;;;;;;;5013859;28;20054;-70
2023/09/18 02:22:19;;;;;;;27.30;15.83;;;;;;;;;;5013718;28;20488;-70
2023/09/18 02:24:45;;;;;;;20.20;15.10;;;;;;;;;;5013831;28;20748;-72
2023/09/18 02:27:11;;;;;;;25.20;15.75;;;;;;;;;;5013626;28;20272;-70
2023/09/18 02:29:36;;;;;;;26.65;15.40;;;;;;;;;;5013686;28;20105;-70
2023/09/18 02:32:02;;;;;;;24.37;16.03;;;;;;;;;;5013782;28;20049;-71
2023/09/18 02:34:27;;;;;;;20.05;15.18;;;;;;;;;;5012377;28;20264;-70
2023/09/18 02:36:52;;;;;;;24.23;15.70;;;;;;;;;;5013588;28;20449;-70
2023/09/18 02:39:17;;;;;;;22.87;14.87;;;;;;;;;;5013464;28;20022;-70
2023/09/18 02:41:43;;;;;;;23.53;15.10;;;;;;;;;;5012185;28;20446;-70
2023/09/18 02:44:08;;;;;;;31.20;15.60;;;;;;;;;;5012173;28;20280;-70
2023/09/18 02:46:33;;;;;;;22.73;15.23;;;;;;;;;;5012248;28;20054;-70
2023/09/18 02:48:58;;;;;;;24.27;15.37;;;;;;;;;;5013499;28;20045;-70
2023/09/18 02:51:23;;;;;;;23.17;14.67;;;;;;;;;;5012320;28;20022;-70
2023/09/18 02:53:48;;;;;;;24.30;14.77;;;;;;;;;;5013406;28;20488;-70
2023/09/18 02:56:14;;;;;;;22.83;15.40;;;;;;;;;;5013410;28;20377;-71
2023/09/18 02:58:39;;;;;;;24.07;15.17;;;;;;;;;;5013458;28;20018;-70
2023/09/18 03:01:06;;;;;;;25.92;15.10;;;;;;;;;;5012169;28;20336;-70
2023/09/18 03:03:31;;;;;;;24.45;15.18;;;;;;;;;;5013312;28;20032;-70
2023/09/18 03:06:01;;;;;;;22.58;14.82;;;;;;;;;;5013298;28;20022;-71
2023/09/18 03:08:27;;;;;;;29.65;15.93;;;;;;;;;;5014978;28;20046;-70
2023/09/18 03:10:52;;;;;;;24.73;13.93;;;;;;;;;;5017290;28;20037;-70
2023/09/18 03:13:17;;;;;;;29.23;15.67;;;;;;;;;;5015897;28;20819;-71
2023/09/18 03:15:47;;;;;;;26.95;15.48;;;;;;;;;;5017260;28;20265;-70
2023/09/18 03:18:12;;;;;;;26.27;15.57;;;;;;;;;;5017191;28;20025;-70
2023/09/18 03:20:37;;;;;;;24.73;15.23;;;;;;;;;;5017223;28;20362;-71
2023/09/18 03:23:02;;;;;;;24.30;14.70;;;;;;;;;;5016996;28;20277;-70
2023/09/18 03:25:28;;;;;;;22.42;14.50;;;;;;;;;;5016988;28;20261;-70
2023/09/18 03:27:54;;;;;;;28.27;15.57;;;;;;;;;;5015528;28;20124;-71
2023/09/18 03:30:20;;;;;;;23.77;14.77;;;;;;;;;;5015651;28;20028;-71
2023/09/18 03:32:48;;;;;;;24.67;14.27;;;;;;;;;;5015712;28;20117;-71
2023/09/18 03:35:19;;;;;;;22.05;14.00;;;;;;;;;;5016840;28;20029;-71
2023/09/18 03:37:48;;;;;;;21.17;14.23;;;;;;;;;;5016864;28;20022;-71
2023/09/18 03:40:14;;;;;;;20.63;13.93;;;;;;;;;;5016824;28;20038;-71
2023/09/18 03:42:39;;;;;;;22.10;14.55;;;;;;;;;;5016495;28;20075;-70
2023/09/18 03:45:08;;;;;;;25.40;14.70;;;;;;;;;;5015381;28;20010;-70
2023/09/18 03:47:37;;;;;;;20.95;14.75;;;;;;;;;;5016617;28;20304;-70
2023/09/18 03:50:03;;;;;;;26.30;15.05;;;;;;;;;;5015364;28;20013;-70
2023/09/18 03:52:28;;;;;;;24.20;14.65;;;;;;;;;;5015075;28;20462;-69
2023/09/18 03:54:53;;;;;;;21.90;14.00;;;;;;;;;;5016563;28;20022;-71
2023/09/18 03:57:18;;;;;;;22.30;13.90;;;;;;;;;;5016432;28;20049;-71
2023/09/18 03:59:43;;;;;;;23.77;14.10;;;;;;;;;;5015046;28;20351;-70
2023/09/18 04:02:09;;;;;;;29.07;14.70;;;;;;;;;;5016166;28;20354;-70
2023/09/18 04:04:34;;;;;;;23.63;14.57;;;;;;;;;;5016289;28;20072;-70
2023/09/18 04:06:59;;;;;;;23.17;14.43;;;;;;;;;;5016506;28;20476;-70
2023/09/18 04:09:24;;;;;;;25.63;14.37;;;;;;;;;;5016028;28;20016;-70
2023/09/18 04:11:49;;;;;;;21.13;14.17;;;;;;;;;;5016156;28;20261;-70
2023/09/18 04:14:15;;;;;;;24.35;14.73;;;;;;;;;;5014891;28;20022;-72
2023/09/18 04:16:41;;;;;;;23.90;15.18;;;;;;;;;;5015933;28;20029;-71
2023/09/18 04:19:07;;;;;;;27.20;14.55;;;;;;;;;;5015819;28;20075;-70
2023/09/18 04:21:32;;;;;;;24.17;14.70;;;;;;;;;;5016028;28;20060;-71
2023/09/18 04:23:58;;;;;;;27.37;14.37;;;;;;;;;;5015677;28;20496;-70
2023/09/18 04:26:33;;;;;;;21.65;14.20;;;;;;;;;;5014724;28;20033;-71
2023/09/18 04:28:59;;;;;;;25.25;12.95;;;;;;;;;;5015803;28;20049;-70
2023/09/18 04:31:24;;;;;;;24.05;10.93;;;;;;;;;;5015855;28;20022;-71
2023/09/18 04:33:49;;;;;;;20.15;9.40;;;;;;;;;;5014394;28;20029;-72
2023/09/18 04:36:14;;;;;;;11.65;6.28;;;;;;;;;;5015606;28;20018;-72
2023/09/18 04:38:40;;;;;;;7.22;3.03;;;;;;;;;;5015577;28;20370;-71
2023/09/18 04:41:07;;;;;;;10.17;2.50;;;;;;;;;;5014286;28;20022;-71
2023/09/18 04:43:33;;;;;;;4.97;2.50;;;;;;;;;;5015568;28;20317;-71
2023/09/18 04:45:58;;;;;;;8.23;3.08;;;;;;;;;;5016473;28;20496;-71
2023/09/18 04:48:23;;;;;;;8.73;3.50;;;;;;;;;;5015392;28;20051;-71
2023/09/18 04:50:48;;;;;;;13.47;4.33;;;;;;;;;;5015386;28;20263;-72
2023/09/18 04:53:14;;;;;;;17.10;4.70;;;;;;;;;;5015258;28;20022;-72
2023/09/18 04:55:39;;;;;;;18.23;5.22;;;;;;;;;;5015257;28;20030;-72
2023/09/18 04:58:05;;;;;;;11.13;5.10;;;;;;;;;;5013966;28;20113;-71
2023/09/18 05:00:31;;;;;;;9.95;4.78;;;;;;;;;;5015183;28;20089;-71
2023/09/18 05:02:58;;;;;;;7.47;4.82;;;;;;;;;;5015189;28;20021;-71
2023/09/18 05:05:23;;;;;;;10.40;5.05;;;;;;;;;;5015067;28;20018;-71
2023/09/18 05:07:48;;;;;;;10.90;4.80;;;;;;;;;;5013832;28;20060;-71
2023/09/18 05:10:13;;;;;;;7.90;5.13;;;;;;;;;;5013646;28;20656;-72
2023/09/18 05:12:39;;;;;;;11.20;4.80;;;;;;;;;;5013620;28;20025;-72
2023/09/18 05:15:04;;;;;;;11.52;4.82;;;;;;;;;;5014955;28;20021;-71
2023/09/18 05:17:41;;;;;;;14.48;5.30;;;;;;;;;;5014802;28;20026;-72
2023/09/18 05:20:07;;;;;;;9.80;5.53;;;;;;;;;;5014831;28;20018;-71
2023/09/18 05:22:32;;;;;;;9.45;5.45;;;;;;;;;;5014788;28;20378;-71
2023/09/18 05:24:57;;;;;;;10.10;5.80;;;;;;;;;;5014636;28;20101;-71
2023/09/18 05:27:25;;;;;;;12.13;6.50;;;;;;;;;;5013348;28;20052;-71
2023/09/18 05:29:50;;;;;;;11.63;6.28;;;;;;;;;;5013935;28;20014;-72
2023/09/18 05:32:15;;;;;;;11.03;5.97;;;;;;;;;;5014733;28;20024;-71
2023/09/18 05:34:40;;;;;;;10.20;6.30;;;;;;;;;;5014618;28;20017;-71
2023/09/18 05:37:05;;;;;;;14.93;5.93;;;;;;;;;;5014555;28;20080;-71
2023/09/18 05:39:31;;;;;;;10.17;5.87;;;;;;;;;;5014705;28;20109;-71
2023/09/18 05:41:57;;;;;;;13.38;5.95;;;;;;;;;;5014314;28;20264;-71
2023/09/18 05:44:23;;;;;;;13.20;6.10;;;;;;;;;;5013160;28;20488;-71
2023/09/18 05:46:48;;;;;;;11.40;6.28;;;;;;;;;;5014429;28;20018;-72
2023/09/18 05:49:13;;;;;;;11.60;6.00;;;;;;;;;;5014355;28;20076;-72
2023/09/18 05:51:38;;;;;;;13.63;6.07;;;;;;;;;;5013037;28;20319;-72
2023/09/18 05:54:04;;;;;;;10.73;6.13;;;;;;;;;;5013117;28;20112;-72
2023/09/18 05:56:29;;;;;;;11.10;6.57;;;;;;;;;;5014140;28;20026;-72
2023/09/18 05:58:55;;;;;;;11.35;6.63;;;;;;;;;;5013984;28;20497;-72
2023/09/18 06:01:20;;;;;;;16.60;7.88;;;;;;;;;;5014301;28;20420;-71
2023/09/18 06:03:45;;;;;;;14.40;7.93;;;;;;;;;;5014087;28;20025;-71
2023/09/18 06:06:11;;;;;;;14.30;7.32;;;;;;;;;;5014023;28;20381;-71
2023/09/18 06:08:36;;;;;;;12.10;7.22;;;;;;;;;;5012713;28;20026;-71
2023/09/18 06:11:01;;;;;;;12.80;7.47;;;;;;;;;;5013938;28;20482;-72
2023/09/18 06:13:27;;;;;;;11.63;6.88;;;;;;;;;;5012660;28;20401;-71
2023/09/18 06:15:54;;;;;;;11.48;6.90;;;;;;;;;;5014099;28;20054;-71
2023/09/18 06:18:20;;;;;;;14.23;7.07;;;;;;;;;;5012759;28;20022;-72
2023/09/18 06:20:45;;;;;;;12.10;6.78;;;;;;;;;;5012622;28;20043;-72
2023/09/18 06:23:11;;;;;;;14.65;7.47;;;;;;;;;;5013691;28;20488;-71
2023/09/18 06:25:37;;;;;;;12.07;7.38;;;;;;;;;;5012476;28;20022;-72
2023/09/18 06:28:03;;;;;;;12.23;7.80;;;;;;;;;;5013571;28;20042;-72
2023/09/18 06:30:30;;;;;;;14.55;7.30;;;;;;;;;;5013463;28;20068;-72
2023/09/18 06:32:56;;;;;;;15.40;7.40;;;;;;;;;;5012372;28;20018;-71
2023/09/18 06:35:21;;;;;;;16.07;7.23;;;;;;;;;;5012311;28;20033;-72
2023/09/18 06:37:46;;;;;;;13.20;7.57;;;;;;;;;;5014057;28;20444;-72
2023/09/18 06:40:11;;;;;;;20.37;7.80;;;;;;;;;;5013540;28;20049;-72
2023/09/18 06:42:37;;;;;;;12.93;7.68;;;;;;;;;;5013298;28;20026;-73
2023/09/18 06:45:02;;;;;;;14.70;8.05;;;;;;;;;;5012211;28;20014;-73
2023/09/18 06:47:28;;;;;;;14.95;7.75;;;;;;;;;;5013613;28;20465;-71
2023/09/18 06:49:53;;;;;;;17.30;7.90;;;;;;;;;;5013457;28;20400;-71
2023/09/18 06:52:18;;;;;;;11.67;7.63;;;;;;;;;;5013509;28;20029;-70
2023/09/18 06:54:43;;;;;;;14.60;7.43;;;;;;;;;;5013455;28;20018;-70
2023/09/18 06:57:09;;;;;;;12.75;7.22;;;;;;;;;;5013461;28;20084;-70
2023/09/18 06:59:34;;;;;;;12.73;7.60;;;;;;;;;;5022920;28;20003;-71
2023/09/18 07:02:01;;;;;;;15.87;7.40;;;;;;;;;;5049277;22;20577;-35
2023/09/18 07:04:26;;;;;;;19.80;7.63;;;;;;;;;;5031967;28;20877;-40
2023/09/18 07:06:53;;;;;;;12.30;7.05;;;;;;;;;;5033171;28;20029;-35
2023/09/18 07:09:18;;;;;;;12.32;6.75;;;;;;;;;;5033279;28;20460;-35
2023/09/18 07:11:44;;;;;;;14.53;6.80;;;;;;;;;;5033407;28;20093;-35
2023/09/18 07:14:09;;;;;;;13.27;6.80;;;;;;;;;;5031954;28;20315;-35
2023/09/18 07:16:34;;;;;;;12.35;6.53;;;;;;;;;;5033395;28;20024;-35
2023/09/18 07:19:00;;;;;;;15.18;6.60;;;;;;;;;;5033659;28;20024;-35
2023/09/18 07:21:25;;;;;;;12.27;6.75;;;;;;;;;;5033823;28;20025;-35
2023/09/18 07:23:51;;;;;;;14.87;6.53;;;;;;;;;;5032901;28;20028;-35
2023/09/18 07:26:16;;;;;;;14.45;6.20;;;;;;;;;;5033353;28;20021;-36
2023/09/18 07:28:42;;;;;;;12.90;6.70;;;;;;;;;;5032945;28;20421;-35
2023/09/18 07:31:08;;;;;;;13.85;6.05;;;;;;;;;;5033196;28;20018;-34
2023/09/18 07:33:34;;;;;;;10.82;6.60;;;;;;;;;;5033256;28;20025;-35
2023/09/18 07:35:59;;;;;;;9.75;5.90;;;;;;;;;;5032974;28;20455;-35
2023/09/18 07:38:25;;;;;;;11.77;6.40;;;;;;;;;;5033204;28;20018;-34
2023/09/18 07:40:50;;;;;;;10.45;6.20;;;;;;;;;;5033140;28;20260;-34
2023/09/18 07:43:15;;;;;;;10.43;6.30;;;;;;;;;;5032800;28;20060;-35
2023/09/18 07:45:40;;;;;;;10.30;6.10;;;;;;;;;;5033080;28;20010;-35
2023/09/18 07:48:07;;;;;;;11.07;6.40;;;;;;;;;;5032697;28;20249;-35
2023/09/18 07:50:33;;;;;;;8.88;5.93;;;;;;;;;;5032740;28;20051;-35
2023/09/18 07:52:58;;;;;;;10.63;6.10;;;;;;;;;;5033342;28;20495;-35
2023/09/18 07:55:24;;;;;;;12.27;5.78;;;;;;;;;;5036397;28;20084;-35
2023/09/18 07:57:49;;;;;;;12.82;6.00;;;;;;;;;;5036614;28;20026;-36
2023/09/18 08:00:15;;;;;;;11.35;6.05;;;;;;;;;;5035194;28;20426;-35
2023/09/18 08:02:41;;;;;;;16.00;6.88;;;;;;;;;;5035416;28;20131;-35
2023/09/18 08:05:08;;;;;;;10.07;6.45;;;;;;;;;;5036295;28;20061;-35
2023/09/18 08:07:35;;;;;;;14.05;5.95;;;;;;;;;;5035383;28;20422;-35
2023/09/18 08:10:00;;;;;;;10.55;6.00;;;;;;;;;;5035999;28;20017;-35
2023/09/18 08:12:25;;;;;;;12.63;5.90;;;;;;;;;;5036075;28;20036;-35
2023/09/18 08:14:50;;;;;;;7.90;5.30;;;;;;;;;;5036254;28;20276;-35
2023/09/18 08:17:16;;;;;;;11.53;5.43;;;;;;;;;;5036536;28;20271;-35
2023/09/18 08:19:41;;;;;;;9.60;4.97;;;;;;;;;;5035867;28;20268;-35
2023/09/18 08:22:06;;;;;;;9.23;5.30;;;;;;;;;;5036140;28;20018;-35
2023/09/18 08:24:31;;;;;;;7.70;5.15;;;;;;;;;;5035795;28;20427;-35
2023/09/18 08:26:57;;;;;;;8.88;4.80;;;;;;;;;;5036073;28;20022;-34
2023/09/18 08:29:22;;;;;;;9.55;4.88;;;;;;;;;;5035665;28;20032;-35
2023/09/18 08:31:47;;;;;;;10.53;5.37;;;;;;;;;;5035734;28;20056;-36
2023/09/18 08:34:13;;;;;;;12.13;5.30;;;;;;;;;;5035901;28;20264;-36
2023/09/18 08:36:38;;;;;;;7.87;5.20;;;;;;;;;;5035581;28;20021;-36
2023/09/18 08:39:05;;;;;;;8.13;5.10;;;;;;;;;;5036135;28;20028;-36
2023/09/18 08:41:31;;;;;;;8.63;4.32;;;;;;;;;;5035491;28;20263;-36
2023/09/18 08:43:59;;;;;;;9.05;4.47;;;;;;;;;;5035334;28;20021;-36
2023/09/18 08:46:25;;;;;;;8.70;3.97;;;;;;;;;;5035701;28;20021;-36
2023/09/18 08:48:51;;;;;;;7.20;3.70;;;;;;;;;;5035360;28;20017;-36
2023/09/18 08:51:17;;;;;;;8.88;3.70;;;;;;;;;;5034086;28;20056;-35
2023/09/18 08:53:43;;;;;;;7.32;3.92;;;;;;;;;;5035362;28;20051;-35
2023/09/18 08:56:09;;;;;;;7.95;3.13;;;;;;;;;;5035541;28;20075;-35
2023/09/18 08:58:37;;;;;;;7.55;3.47;;;;;;;;;;5035441;28;20018;-35
2023/09/18 09:01:03;;;;;;;5.30;3.30;;;;;;;;;;5035061;28;20064;-35
2023/09/18 09:03:29;;;;;;;4.45;3.10;;;;;;;;;;5034971;28;20057;-36
2023/09/18 09:05:54;;;;;;;8.15;3.20;;;;;;;;;;5033981;28;20013;-35
2023/09/18 09:08:20;;;;;;;7.30;3.30;;;;;;;;;;5035023;28;20029;-35
2023/09/18 09:10:46;;;;;;;7.35;3.20;;;;;;;;;;5035235;28;20021;-36
2023/09/18 09:13:13;;;;;;;7.93;3.53;;;;;;;;;;5035008;28;20509;-35
2023/09/18 09:15:49;;;;;;;6.82;3.53;;;;;;;;;;5035075;28;20679;-35
2023/09/18 09:18:15;;;;;;;9.02;3.60;;;;;;;;;;5034743;28;20017;-34
2023/09/18 09:20:41;;;;;;;9.02;3.80;;;;;;;;;;5034722;28;20028;-35
2023/09/18 09:23:08;;;;;;;8.25;3.35;;;;;;;;;;5034639;28;20029;-34
2023/09/18 09:25:34;;;;;;;8.65;3.80;;;;;;;;;;5034689;28;20129;-35
2023/09/18 09:27:59;;;;;;;8.23;3.70;;;;;;;;;;5034524;28;20017;-34
2023/09/18 09:30:27;;;;;;;8.02;3.95;;;;;;;;;;5034769;28;20531;-34
2023/09/18 09:32:53;;;;;;;8.82;3.80;;;;;;;;;;5034493;28;20102;-36
2023/09/18 09:35:28;;;;;;;8.68;4.00;;;;;;;;;;5034539;28;20025;-35
2023/09/18 09:37:57;;;;;;;7.93;3.55;;;;;;;;;;5034635;28;20021;-35
2023/09/18 09:40:22;;;;;;;8.73;3.75;;;;;;;;;;5034720;28;20033;-35
2023/09/18 09:42:51;;;;;;;16.05;3.85;;;;;;;;;;5034275;28;20460;-35
2023/09/18 09:45:16;;;;;;;6.63;3.80;;;;;;;;;;5035351;28;20067;-35
2023/09/18 09:47:41;;;;;;;6.50;3.97;;;;;;;;;;5034587;28;20487;-35
2023/09/18 09:50:09;;;;;;;8.23;3.50;;;;;;;;;;5034067;28;20017;-34
2023/09/18 09:52:34;;;;;;;9.18;3.50;;;;;;;;;;5033793;28;20463;-35
2023/09/18 09:54:59;;;;;;;7.70;3.53;;;;;;;;;;5033693;28;20025;-35
2023/09/18 09:57:25;;;;;;;8.27;3.60;;;;;;;;;;5033344;28;20474;-35
2023/09/18 09:59:50;;;;;;;12.03;3.70;;;;;;;;;;5033645;28;20026;-34
2023/09/18 10:02:19;;;;;;;5.80;3.60;;;;;;;;;;5042144;22;20327;-69
2023/09/18 10:04:48;;;;;;;7.10;3.38;;;;;;;;;;5023050;28;20289;-71
2023/09/18 10:07:15;;;;;;;8.18;3.25;;;;;;;;;;5028743;28;20013;-69
2023/09/18 10:09:42;;;;;;;6.47;3.53;;;;;;;;;;5031336;28;20030;-70
2023/09/18 10:12:10;;;;;;;7.53;3.60;;;;;;;;;;5030704;28;20038;-70
2023/09/18 10:14:37;;;;;;;8.38;3.42;;;;;;;;;;5028755;28;20018;-71
2023/09/18 10:17:22;;;;;;;10.38;3.60;;;;;;;;;;5029325;28;20029;-71
2023/09/18 10:19:56;;;;;;;6.90;3.30;;;;;;;;;;5030606;28;20034;-70
2023/09/18 10:22:28;;;;;;;8.63;3.70;;;;;;;;;;5028238;28;20048;-70
2023/09/18 10:24:55;;;;;;;8.07;3.83;;;;;;;;;;5029950;28;20022;-72
2023/09/18 10:27:21;;;;;;;11.10;3.35;;;;;;;;;;5029032;28;20018;-70
2023/09/18 10:29:48;;;;;;;7.15;3.30;;;;;;;;;;5027559;28;20013;-70
2023/09/18 10:32:14;;;;;;;9.77;3.60;;;;;;;;;;5029865;28;20022;-69
2023/09/18 10:34:40;;;;;;;9.13;3.65;;;;;;;;;;5029988;28;20022;-69
2023/09/18 10:37:07;;;;;;;10.38;3.85;;;;;;;;;;5026745;28;20025;-68
2023/09/18 10:39:36;;;;;;;7.82;3.88;;;;;;;;;;5027449;28;20049;-70
2023/09/18 10:42:03;;;;;;;6.40;3.90;;;;;;;;;;5027353;28;20026;-69
2023/09/18 10:44:29;;;;;;;9.43;4.07;;;;;;;;;;5027827;28;20026;-71
2023/09/18 10:46:55;;;;;;;8.85;3.95;;;;;;;;;;5028887;28;20595;-70
2023/09/18 10:49:21;;;;;;;11.45;3.85;;;;;;;;;;5027165;28;20014;-72
2023/09/18 10:51:46;;;;;;;7.63;3.63;;;;;;;;;;5015797;28;20022;-71
2023/09/18 10:54:15;;;;;;;7.07;3.70;;;;;;;;;;5014985;28;20381;-71
2023/09/18 10:56:41;;;;;;;6.93;3.47;;;;;;;;;;5014388;28;20022;-71
2023/09/18 10:59:07;;;;;;;6.78;3.47;;;;;;;;;;5023072;28;20014;-70
2023/09/18 11:01:32;;;;;;;11.52;3.35;;;;;;;;;;5032168;28;20074;-73
2023/09/18 11:04:01;;;;;;;5.03;3.22;;;;;;;;;;5027576;28;20089;-69
2023/09/18 11:06:27;;;;;;;5.53;3.13;;;;;;;;;;5016900;28;20037;-70
2023/09/18 11:09:01;;;;;;;10.80;3.38;;;;;;;;;;5016105;28;20033;-69
2023/09/18 11:11:29;;;;;;;8.95;3.25;;;;;;;;;;5014898;28;20493;-69
2023/09/18 11:13:56;;;;;;;7.50;3.40;;;;;;;;;;5020191;28;20002;-71
2023/09/18 11:16:27;;;;;;;6.95;3.50;;;;;;;;;;5015923;28;20386;-72
2023/09/18 11:18:53;;;;;;;10.55;3.63;;;;;;;;;;5023579;28;20098;-71
2023/09/18 11:21:23;;;;;;;8.20;3.75;;;;;;;;;;5020959;28;20014;-72
2023/09/18 11:23:57;;;;;;;5.72;3.28;;;;;;;;;;5022705;28;20014;-73
2023/09/18 11:26:22;;;;;;;6.20;3.47;;;;;;;;;;5024922;28;20018;-69
2023/09/18 11:28:48;;;;;;;6.53;3.05;;;;;;;;;;5017667;28;20025;-70
2023/09/18 11:31:14;;;;;;;7.97;3.17;;;;;;;;;;5015753;28;20033;-71
2023/09/18 11:33:40;;;;;;;6.70;3.28;;;;;;;;;;5019534;28;20010;-71
2023/09/18 11:36:14;;;;;;;7.28;3.55;;;;;;;;;;5020125;28;20029;-70
2023/09/18 11:39:03;;;;;;;8.15;3.60;;;;;;;;;;5024406;28;20021;-70
2023/09/18 11:41:29;;;;;;;5.90;3.30;;;;;;;;;;5031694;28;20033;-69
2023/09/18 11:44:16;;;;;;;7.03;3.03;;;;;;;;;;5019884;28;20104;-70
2023/09/18 11:46:45;;;;;;;6.88;3.28;;;;;;;;;;5019698;28;20026;-69
2023/09/18 11:49:10;;;;;;;7.50;3.20;;;;;;;;;;5022757;28;20017;-70
2023/09/18 11:51:36;;;;;;;13.15;3.92;;;;;;;;;;5019418;28;20040;-70
2023/09/18 11:54:03;;;;;;;6.68;3.33;;;;;;;;;;5023900;28;20033;-70
2023/09/18 11:56:28;;;;;;;6.82;3.33;;;;;;;;;;5034040;28;20017;-71
2023/09/18 11:58:54;;;;;;;8.65;3.55;;;;;;;;;;5027023;28;20033;-70
2023/09/18 12:01:22;;;;;;;5.20;3.33;;;;;;;;;;5034875;28;20037;-71
2023/09/18 12:03:54;;;;;;;10.60;3.08;;;;;;;;;;5035394;28;20049;-73
2023/09/18 12:06:20;;;;;;;7.28;3.30;;;;;;;;;;5036823;28;20508;-70
2023/09/18 12:08:46;;;;;;;7.95;3.22;;;;;;;;;;5027390;28;20022;-69
2023/09/18 12:11:16;;;;;;;6.85;3.05;;;;;;;;;;5017903;28;20025;-70
2023/09/18 12:13:41;;;;;;;6.45;2.83;;;;;;;;;;5017741;28;20022;-70
2023/09/18 12:16:07;;;;;;;5.90;3.03;;;;;;;;;;5019293;28;20101;-69
2023/09/18 12:18:34;;;;;;;6.87;3.00;;;;;;;;;;5017084;28;20265;-70
2023/09/18 12:21:00;;;;;;;8.77;3.17;;;;;;;;;;5016450;28;20029;-70
2023/09/18 12:23:27;;;;;;;6.25;2.80;;;;;;;;;;5015758;28;20048;-71
2023/09/18 12:25:57;;;;;;;9.07;2.78;;;;;;;;;;5018324;28;20050;-69
2023/09/18 12:28:24;;;;;;;4.03;2.65;;;;;;;;;;5016891;28;20117;-69
2023/09/18 12:30:52;;;;;;;8.20;3.20;;;;;;;;;;5033651;28;20026;-69
2023/09/18 12:33:17;;;;;;;6.68;3.17;;;;;;;;;;5016819;28;20026;-69
2023/09/18 12:35:42;;;;;;;5.80;2.70;;;;;;;;;;5015799;28;20458;-70
2023/09/18 12:38:24;;;;;;;6.32;2.90;;;;;;;;;;5014394;28;20018;-69
2023/09/18 12:40:49;;;;;;;7.75;2.92;;;;;;;;;;5015639;28;20025;-69
2023/09/18 12:43:15;;;;;;;8.15;3.10;;;;;;;;;;5014215;28;20469;-70
2023/09/18 12:45:41;;;;;;;4.88;2.92;;;;;;;;;;5015873;28;20014;-70
2023/09/18 12:48:06;;;;;;;6.78;3.00;;;;;;;;;;5015717;28;20018;-69
2023/09/18 12:50:31;;;;;;;10.00;3.33;;;;;;;;;;5016491;28;20014;-70
2023/09/18 12:53:10;;;;;;;10.20;3.10;;;;;;;;;;5034800;28;20026;-70
2023/09/18 12:55:36;;;;;;;7.93;2.85;;;;;;;;;;5027429;28;20026;-70
2023/09/18 12:58:05;;;;;;;4.05;2.67;;;;;;;;;;5034735;28;20093;-69
2023/09/18 13:00:30;;;;;;;5.63;2.60;;;;;;;;;;5030383;28;20032;-71
2023/09/18 13:02:57;;;;;;;9.82;3.38;;;;;;;;;;5028553;28;20125;-71
2023/09/18 13:05:25;;;;;;;8.68;3.17;;;;;;;;;;5036378;28;20018;-71
2023/09/18 13:07:51;;;;;;;8.55;2.92;;;;;;;;;;5016205;28;20423;-69
2023/09/18 13:10:16;;;;;;;10.35;2.88;;;;;;;;;;5019156;28;20105;-70
2023/09/18 13:12:48;;;;;;;7.75;2.75;;;;;;;;;;5015008;28;20014;-70
2023/09/18 13:15:14;;;;;;;4.90;2.80;;;;;;;;;;5016052;28;20018;-70
2023/09/18 13:17:40;;;;;;;9.00;2.70;;;;;;;;;;5016406;28;20032;-70
2023/09/18 13:20:12;;;;;;;8.80;3.00;;;;;;;;;;5014283;28;20117;-70
2023/09/18 13:22:38;;;;;;;;;;;;;;;;;;5016704;28;20044;-70
2023/09/18 13:25:04;;;;;;;6.57;2.70;;;;;;;;;;5015745;28;19905;-70
2023/09/18 13:27:30;;;;;;;6.70;2.72;;;;;;;;;;5016040;28;20474;-69
2023/09/18 13:29:56;;;;;;;7.38;3.10;;;;;;;;;;5016540;28;20104;-69
2023/09/18 13:32:21;;;;;;;6.10;3.35;;;;;;;;;;5017869;28;20014;-69
2023/09/18 13:34:47;;;;;;;7.85;3.20;;;;;;;;;;5019640;28;20100;-69
2023/09/18 13:37:13;;;;;;;7.15;3.70;;;;;;;;;;5013981;28;20109;-70
2023/09/18 13:39:39;;;;;;;7.50;3.80;;;;;;;;;;5015158;28;20097;-69
2023/09/18 13:42:04;;;;;;;8.23;3.97;;;;;;;;;;5016737;28;20099;-69
2023/09/18 13:44:29;;;;;;;10.05;3.50;;;;;;;;;;5013767;28;20397;-70
2023/09/18 13:46:54;;;;;;;5.28;3.30;;;;;;;;;;5014947;28;20029;-70
2023/09/18 13:49:20;;;;;;;4.97;3.20;;;;;;;;;;5013231;28;20014;-71
2023/09/18 13:51:45;;;;;;;10.52;3.45;;;;;;;;;;5013050;28;20033;-69
2023/09/18 13:54:10;;;;;;;5.70;3.07;;;;;;;;;;5013489;28;20013;-71
2023/09/18 13:56:36;;;;;;;6.47;3.10;;;;;;;;;;5013069;28;20687;-70
2023/09/18 13:59:01;;;;;;;7.88;3.00;;;;;;;;;;5013158;28;20045;-69
2023/09/18 14:01:26;;;;;;;6.13;3.30;;;;;;;;;;5014581;28;20072;-69
2023/09/18 14:03:52;;;;;;;6.82;3.10;;;;;;;;;;5014426;28;20052;-70
2023/09/18 14:06:17;;;;;;;6.87;3.20;;;;;;;;;;5014186;28;20017;-70
2023/09/18 14:08:42;;;;;;;8.43;3.90;;;;;;;;;;5013030;28;20022;-69
2023/09/18 14:11:07;;;;;;;10.27;3.58;;;;;;;;;;5014273;28;20088;-70
2023/09/18 14:13:33;;;;;;;5.75;3.25;;;;;;;;;;5013239;28;20363;-70
2023/09/18 14:15:59;;;;;;;6.10;3.08;;;;;;;;;;5014428;28;20020;-69
2023/09/18 14:18:24;;;;;;;5.00;3.10;;;;;;;;;;5014067;28;20026;-69
2023/09/18 14:20:49;;;;;;;7.03;3.05;;;;;;;;;;5013554;28;20384;-69
2023/09/18 14:23:15;;;;;;;7.97;2.87;;;;;;;;;;5013816;28;20473;-69
2023/09/18 14:25:41;;;;;;;5.57;2.73;;;;;;;;;;5012538;28;20018;-69